sensor_id;sensor_type;location;lat;lon;timestamp;temperature;humidity
23403;DHT22;11874;48.228;11.684;2024-01-30T00:02:28;4.40;99.90
23403;DHT22;11874;48.228;11.684;2024-01-30T00:04:56;4.40;99.90
23403;DHT22;11874;48.228;11.684;2024-01-30T00:07:24;4.40;99.90
23403;DHT22;11874;48.228;11.684;2024-01-30T00:09:52;4.30;99.90
23403;DHT22;11874;48.228;11.684;2024-01-30T00:12:20;4.40;99.90
23403;DHT22;11874;48.228;11.684;2024-01-30T00:14:48;4.40;99.90
23403;DHT22;11874;48.228;11.684;2024-01-30T00:17:20;4.30;99.90
23403;DHT22;11874;48.228;11.684;2024-01-30T00:19:50;4.30;99.90
23403;DHT22;11874;48.228;11.684;2024-01-30T00:22:18;4.30;99.90
23403;DHT22;11874;48.228;11.684;2024-01-30T00:24:46;4.30;99.90
23403;DHT22;11874;48.228;11.684;2024-01-30T00:27:15;4.30;99.90
23403;DHT22;11874;48.228;11.684;2024-01-30T00:29:43;4.30;99.90
23403;DHT22;11874;48.228;11.684;2024-01-30T00:32:11;4.30;99.90
23403;DHT22;11874;48.228;11.684;2024-01-30T00:34:46;4.30;99.90
23403;DHT22;11874;48.228;11.684;2024-01-30T00:37:15;4.20;99.90
23403;DHT22;11874;48.228;11.684;2024-01-30T00:39:44;4.30;99.90
23403;DHT22;11874;48.228;11.684;2024-01-30T00:42:12;4.20;99.90
23403;DHT22;11874;48.228;11.684;2024-01-30T00:44:41;4.20;99.90
23403;DHT22;11874;48.228;11.684;2024-01-30T00:47:10;4.20;99.90
23403;DHT22;11874;48.228;11.684;2024-01-30T00:49:38;4.20;99.90
23403;DHT22;11874;48.228;11.684;2024-01-30T00:52:06;4.10;99.90
23403;DHT22;11874;48.228;11.684;2024-01-30T00:54:36;4.20;99.90
23403;DHT22;11874;48.228;11.684;2024-01-30T00:57:04;4.10;99.90
23403;DHT22;11874;48.228;11.684;2024-01-30T00:59:32;4.10;99.90
23403;DHT22;11874;48.228;11.684;2024-01-30T01:02:00;4.10;99.90
23403;DHT22;11874;48.228;11.684;2024-01-30T01:04:28;4.10;99.90
23403;DHT22;11874;48.228;11.684;2024-01-30T01:06:56;4.10;99.90
23403;DHT22;11874;48.228;11.684;2024-01-30T01:09:25;4.10;99.90
23403;DHT22;11874;48.228;11.684;2024-01-30T01:11:55;4.10;99.90
23403;DHT22;11874;48.228;11.684;2024-01-30T01:14:25;4.10;99.90
23403;DHT22;11874;48.228;11.684;2024-01-30T01:16:55;4.10;99.90
23403;DHT22;11874;48.228;11.684;2024-01-30T01:19:23;4.10;99.90
23403;DHT22;11874;48.228;11.684;2024-01-30T01:21:52;4.10;99.90
23403;DHT22;11874;48.228;11.684;2024-01-30T01:24:33;4.00;99.90
23403;DHT22;11874;48.228;11.684;2024-01-30T01:27:05;4.10;99.90
23403;DHT22;11874;48.228;11.684;2024-01-30T01:29:33;4.00;99.90
23403;DHT22;11874;48.228;11.684;2024-01-30T01:32:04;4.00;99.90
23403;DHT22;11874;48.228;11.684;2024-01-30T01:34:33;4.00;99.90
23403;DHT22;11874;48.228;11.684;2024-01-30T01:37:03;4.00;99.90
23403;DHT22;11874;48.228;11.684;2024-01-30T01:39:31;4.00;99.90
23403;DHT22;11874;48.228;11.684;2024-01-30T01:41:59;4.00;99.90
23403;DHT22;11874;48.228;11.684;2024-01-30T01:44:30;4.00;99.90
23403;DHT22;11874;48.228;11.684;2024-01-30T01:46:58;3.90;99.90
23403;DHT22;11874;48.228;11.684;2024-01-30T01:49:29;3.90;99.90
23403;DHT22;11874;48.228;11.684;2024-01-30T01:51:58;3.90;99.90
23403;DHT22;11874;48.228;11.684;2024-01-30T01:54:28;4.00;99.90
23403;DHT22;11874;48.228;11.684;2024-01-30T01:56:58;3.90;99.90
23403;DHT22;11874;48.228;11.684;2024-01-30T01:59:30;4.00;99.90
23403;DHT22;11874;48.228;11.684;2024-01-30T02:01:59;4.00;99.90
23403;DHT22;11874;48.228;11.684;2024-01-30T02:04:29;3.90;99.90
23403;DHT22;11874;48.228;11.684;2024-01-30T02:06:58;3.90;99.90
23403;DHT22;11874;48.228;11.684;2024-01-30T02:09:27;3.90;99.90
23403;DHT22;11874;48.228;11.684;2024-01-30T02:11:55;3.90;99.90
23403;DHT22;11874;48.228;11.684;2024-01-30T02:14:24;3.80;99.90
23403;DHT22;11874;48.228;11.684;2024-01-30T02:16:58;3.80;99.90
23403;DHT22;11874;48.228;11.684;2024-01-30T02:19:26;3.80;99.90
23403;DHT22;11874;48.228;11.684;2024-01-30T02:21:56;3.80;99.90
23403;DHT22;11874;48.228;11.684;2024-01-30T02:24:24;3.80;99.90
23403;DHT22;11874;48.228;11.684;2024-01-30T02:26:52;3.80;99.90
23403;DHT22;11874;48.228;11.684;2024-01-30T02:29:21;3.70;99.90
23403;DHT22;11874;48.228;11.684;2024-01-30T02:31:49;3.80;99.90
23403;DHT22;11874;48.228;11.684;2024-01-30T02:34:19;3.80;99.90
23403;DHT22;11874;48.228;11.684;2024-01-30T02:36:48;3.80;99.90
23403;DHT22;11874;48.228;11.684;2024-01-30T02:39:17;3.70;99.90
23403;DHT22;11874;48.228;11.684;2024-01-30T02:41:46;3.70;99.90
23403;DHT22;11874;48.228;11.684;2024-01-30T02:44:15;3.70;99.90
23403;DHT22;11874;48.228;11.684;2024-01-30T02:46:43;3.70;99.90
23403;DHT22;11874;48.228;11.684;2024-01-30T02:49:13;3.70;99.90
23403;DHT22;11874;48.228;11.684;2024-01-30T02:51:42;3.70;99.90
23403;DHT22;11874;48.228;11.684;2024-01-30T02:54:10;3.70;99.90
23403;DHT22;11874;48.228;11.684;2024-01-30T02:56:40;3.60;99.90
23403;DHT22;11874;48.228;11.684;2024-01-30T02:59:08;3.70;99.90
23403;DHT22;11874;48.228;11.684;2024-01-30T03:01:42;3.60;99.90
23403;DHT22;11874;48.228;11.684;2024-01-30T03:04:11;3.60;99.90
23403;DHT22;11874;48.228;11.684;2024-01-30T03:06:46;3.60;99.90
23403;DHT22;11874;48.228;11.684;2024-01-30T03:09:17;3.60;99.90
23403;DHT22;11874;48.228;11.684;2024-01-30T03:11:46;3.60;99.90
23403;DHT22;11874;48.228;11.684;2024-01-30T03:14:14;3.50;99.90
23403;DHT22;11874;48.228;11.684;2024-01-30T03:16:42;3.60;99.90
23403;DHT22;11874;48.228;11.684;2024-01-30T03:19:10;3.60;99.90
23403;DHT22;11874;48.228;11.684;2024-01-30T03:21:38;3.60;99.90
23403;DHT22;11874;48.228;11.684;2024-01-30T03:24:06;3.50;99.90
23403;DHT22;11874;48.228;11.684;2024-01-30T03:26:35;3.50;99.90
23403;DHT22;11874;48.228;11.684;2024-01-30T03:29:05;3.60;99.90
23403;DHT22;11874;48.228;11.684;2024-01-30T03:31:33;3.50;99.90
23403;DHT22;11874;48.228;11.684;2024-01-30T03:34:02;3.60;99.90
23403;DHT22;11874;48.228;11.684;2024-01-30T03:36:30;3.60;99.90
23403;DHT22;11874;48.228;11.684;2024-01-30T03:38:59;3.60;99.90
23403;DHT22;11874;48.228;11.684;2024-01-30T03:41:29;3.60;99.90
23403;DHT22;11874;48.228;11.684;2024-01-30T03:43:57;3.60;99.90
23403;DHT22;11874;48.228;11.684;2024-01-30T03:46:26;3.60;99.90
23403;DHT22;11874;48.228;11.684;2024-01-30T03:48:54;3.60;99.90
23403;DHT22;11874;48.228;11.684;2024-01-30T03:51:22;3.50;99.90
23403;DHT22;11874;48.228;11.684;2024-01-30T03:53:50;3.50;99.90
23403;DHT22;11874;48.228;11.684;2024-01-30T03:56:18;3.50;99.90
23403;DHT22;11874;48.228;11.684;2024-01-30T03:58:46;3.50;99.90
23403;DHT22;11874;48.228;11.684;2024-01-30T04:01:14;3.50;99.90
23403;DHT22;11874;48.228;11.684;2024-01-30T04:03:44;3.50;99.90
23403;DHT22;11874;48.228;11.684;2024-01-30T04:06:13;3.50;99.90
23403;DHT22;11874;48.228;11.684;2024-01-30T04:08:42;3.50;99.90
23403;DHT22;11874;48.228;11.684;2024-01-30T04:11:10;3.50;99.90
23403;DHT22;11874;48.228;11.684;2024-01-30T04:13:38;3.50;99.90
23403;DHT22;11874;48.228;11.684;2024-01-30T04:16:06;3.50;99.90
23403;DHT22;11874;48.228;11.684;2024-01-30T04:18:36;3.50;99.90
23403;DHT22;11874;48.228;11.684;2024-01-30T04:21:06;3.40;99.90
23403;DHT22;11874;48.228;11.684;2024-01-30T04:23:34;3.40;99.90
23403;DHT22;11874;48.228;11.684;2024-01-30T04:26:02;3.40;99.90
23403;DHT22;11874;48.228;11.684;2024-01-30T04:28:30;3.40;99.90
23403;DHT22;11874;48.228;11.684;2024-01-30T04:31:00;3.40;99.90
23403;DHT22;11874;48.228;11.684;2024-01-30T04:33:28;3.40;99.90
23403;DHT22;11874;48.228;11.684;2024-01-30T04:35:57;3.40;99.90
23403;DHT22;11874;48.228;11.684;2024-01-30T04:38:27;3.40;99.90
23403;DHT22;11874;48.228;11.684;2024-01-30T04:40:55;3.40;99.90
23403;DHT22;11874;48.228;11.684;2024-01-30T04:43:25;3.40;99.90
23403;DHT22;11874;48.228;11.684;2024-01-30T04:45:54;3.40;99.90
23403;DHT22;11874;48.228;11.684;2024-01-30T04:48:23;3.40;99.90
23403;DHT22;11874;48.228;11.684;2024-01-30T04:50:51;3.40;99.90
23403;DHT22;11874;48.228;11.684;2024-01-30T04:53:20;3.40;99.90
23403;DHT22;11874;48.228;11.684;2024-01-30T04:55:52;3.40;99.90
23403;DHT22;11874;48.228;11.684;2024-01-30T04:58:20;3.40;99.90
23403;DHT22;11874;48.228;11.684;2024-01-30T05:00:48;3.40;99.90
23403;DHT22;11874;48.228;11.684;2024-01-30T05:03:19;3.30;99.90
23403;DHT22;11874;48.228;11.684;2024-01-30T05:05:49;3.30;99.90
23403;DHT22;11874;48.228;11.684;2024-01-30T05:08:18;3.30;99.90
23403;DHT22;11874;48.228;11.684;2024-01-30T05:10:46;3.30;99.90
23403;DHT22;11874;48.228;11.684;2024-01-30T05:13:15;3.30;99.90
23403;DHT22;11874;48.228;11.684;2024-01-30T05:15:44;3.30;99.90
23403;DHT22;11874;48.228;11.684;2024-01-30T05:18:13;3.30;99.90
23403;DHT22;11874;48.228;11.684;2024-01-30T05:20:41;3.30;99.90
23403;DHT22;11874;48.228;11.684;2024-01-30T05:23:10;3.30;99.90
23403;DHT22;11874;48.228;11.684;2024-01-30T05:25:38;3.30;99.90
23403;DHT22;11874;48.228;11.684;2024-01-30T05:28:06;3.30;99.90
23403;DHT22;11874;48.228;11.684;2024-01-30T05:30:37;3.30;99.90
23403;DHT22;11874;48.228;11.684;2024-01-30T05:33:06;3.30;99.90
23403;DHT22;11874;48.228;11.684;2024-01-30T05:35:35;3.30;99.90
23403;DHT22;11874;48.228;11.684;2024-01-30T05:38:06;3.30;99.90
23403;DHT22;11874;48.228;11.684;2024-01-30T05:40:37;3.30;99.90
23403;DHT22;11874;48.228;11.684;2024-01-30T05:43:05;3.20;99.90
23403;DHT22;11874;48.228;11.684;2024-01-30T05:45:38;3.20;99.90
23403;DHT22;11874;48.228;11.684;2024-01-30T05:48:06;3.30;99.90
23403;DHT22;11874;48.228;11.684;2024-01-30T05:50:34;3.30;99.90
23403;DHT22;11874;48.228;11.684;2024-01-30T05:53:05;3.20;99.90
23403;DHT22;11874;48.228;11.684;2024-01-30T05:55:33;3.20;99.90
23403;DHT22;11874;48.228;11.684;2024-01-30T05:58:01;3.20;99.90
23403;DHT22;11874;48.228;11.684;2024-01-30T06:00:31;3.20;99.90
23403;DHT22;11874;48.228;11.684;2024-01-30T06:03:01;3.20;99.90
23403;DHT22;11874;48.228;11.684;2024-01-30T06:05:28;3.20;99.90
23403;DHT22;11874;48.228;11.684;2024-01-30T06:07:57;3.10;99.90
23403;DHT22;11874;48.228;11.684;2024-01-30T06:10:25;3.10;99.90
23403;DHT22;11874;48.228;11.684;2024-01-30T06:12:53;3.10;99.90
23403;DHT22;11874;48.228;11.684;2024-01-30T06:15:21;3.10;99.90
23403;DHT22;11874;48.228;11.684;2024-01-30T06:17:48;3.10;99.90
23403;DHT22;11874;48.228;11.684;2024-01-30T06:20:18;3.10;99.90
23403;DHT22;11874;48.228;11.684;2024-01-30T06:22:48;3.10;99.90
23403;DHT22;11874;48.228;11.684;2024-01-30T06:25:16;3.20;99.90
23403;DHT22;11874;48.228;11.684;2024-01-30T06:27:44;3.20;99.90
23403;DHT22;11874;48.228;11.684;2024-01-30T06:30:13;3.20;99.90
23403;DHT22;11874;48.228;11.684;2024-01-30T06:32:42;3.10;99.90
23403;DHT22;11874;48.228;11.684;2024-01-30T06:35:10;3.10;99.90
23403;DHT22;11874;48.228;11.684;2024-01-30T06:37:41;3.10;99.90
23403;DHT22;11874;48.228;11.684;2024-01-30T06:40:09;3.10;99.90
23403;DHT22;11874;48.228;11.684;2024-01-30T06:42:38;3.10;99.90
23403;DHT22;11874;48.228;11.684;2024-01-30T06:45:07;3.10;99.90
23403;DHT22;11874;48.228;11.684;2024-01-30T06:47:35;3.00;99.90
23403;DHT22;11874;48.228;11.684;2024-01-30T06:50:04;3.10;99.90
23403;DHT22;11874;48.228;11.684;2024-01-30T06:52:33;3.10;99.90
23403;DHT22;11874;48.228;11.684;2024-01-30T06:55:03;3.10;99.90
23403;DHT22;11874;48.228;11.684;2024-01-30T06:57:32;3.10;99.90
23403;DHT22;11874;48.228;11.684;2024-01-30T07:00:00;3.10;99.90
23403;DHT22;11874;48.228;11.684;2024-01-30T07:02:29;3.10;99.90
23403;DHT22;11874;48.228;11.684;2024-01-30T07:05:01;3.10;99.90
23403;DHT22;11874;48.228;11.684;2024-01-30T07:07:30;3.10;99.90
23403;DHT22;11874;48.228;11.684;2024-01-30T07:09:57;3.10;99.90
23403;DHT22;11874;48.228;11.684;2024-01-30T07:12:27;3.10;99.90
23403;DHT22;11874;48.228;11.684;2024-01-30T07:14:55;3.10;99.90
23403;DHT22;11874;48.228;11.684;2024-01-30T07:17:26;3.10;99.90
23403;DHT22;11874;48.228;11.684;2024-01-30T07:19:54;3.10;99.90
23403;DHT22;11874;48.228;11.684;2024-01-30T07:22:23;3.10;99.90
23403;DHT22;11874;48.228;11.684;2024-01-30T07:24:51;3.10;99.90
23403;DHT22;11874;48.228;11.684;2024-01-30T07:27:19;3.20;99.90
23403;DHT22;11874;48.228;11.684;2024-01-30T07:29:49;3.20;99.90
23403;DHT22;11874;48.228;11.684;2024-01-30T07:32:17;3.20;99.90
23403;DHT22;11874;48.228;11.684;2024-01-30T07:34:47;3.20;99.90
23403;DHT22;11874;48.228;11.684;2024-01-30T07:37:32;3.20;99.90
23403;DHT22;11874;48.228;11.684;2024-01-30T07:40:01;3.20;99.90
23403;DHT22;11874;48.228;11.684;2024-01-30T07:42:31;3.30;99.90
23403;DHT22;11874;48.228;11.684;2024-01-30T07:45:01;3.30;99.90
23403;DHT22;11874;48.228;11.684;2024-01-30T07:47:30;3.30;99.90
23403;DHT22;11874;48.228;11.684;2024-01-30T07:49:58;3.30;99.90
23403;DHT22;11874;48.228;11.684;2024-01-30T07:52:26;3.30;99.90
23403;DHT22;11874;48.228;11.684;2024-01-30T07:54:56;3.40;99.90
23403;DHT22;11874;48.228;11.684;2024-01-30T07:57:24;3.40;99.90
23403;DHT22;11874;48.228;11.684;2024-01-30T07:59:52;3.40;99.90
23403;DHT22;11874;48.228;11.684;2024-01-30T08:02:22;3.40;99.90
23403;DHT22;11874;48.228;11.684;2024-01-30T08:04:52;3.50;99.90
23403;DHT22;11874;48.228;11.684;2024-01-30T08:07:20;3.50;99.90
23403;DHT22;11874;48.228;11.684;2024-01-30T08:09:49;3.50;99.90
23403;DHT22;11874;48.228;11.684;2024-01-30T08:12:17;3.50;99.90
23403;DHT22;11874;48.228;11.684;2024-01-30T08:14:45;3.60;99.90
23403;DHT22;11874;48.228;11.684;2024-01-30T08:17:13;3.60;99.90
23403;DHT22;11874;48.228;11.684;2024-01-30T08:19:43;3.70;99.90
23403;DHT22;11874;48.228;11.684;2024-01-30T08:22:12;3.70;99.90
23403;DHT22;11874;48.228;11.684;2024-01-30T08:24:41;3.70;99.90
23403;DHT22;11874;48.228;11.684;2024-01-30T08:27:09;3.70;99.90
23403;DHT22;11874;48.228;11.684;2024-01-30T08:29:37;3.70;99.90
23403;DHT22;11874;48.228;11.684;2024-01-30T08:32:06;3.80;99.90
23403;DHT22;11874;48.228;11.684;2024-01-30T08:34:36;3.80;99.90
23403;DHT22;11874;48.228;11.684;2024-01-30T08:37:06;3.90;99.90
23403;DHT22;11874;48.228;11.684;2024-01-30T08:39:35;3.90;99.90
23403;DHT22;11874;48.228;11.684;2024-01-30T08:42:03;4.00;99.90
23403;DHT22;11874;48.228;11.684;2024-01-30T08:44:32;4.00;99.90
23403;DHT22;11874;48.228;11.684;2024-01-30T08:47:00;4.10;99.90
23403;DHT22;11874;48.228;11.684;2024-01-30T08:49:28;4.00;99.90
23403;DHT22;11874;48.228;11.684;2024-01-30T08:51:57;4.10;99.90
23403;DHT22;11874;48.228;11.684;2024-01-30T08:54:27;4.10;99.90
23403;DHT22;11874;48.228;11.684;2024-01-30T08:56:55;4.20;99.90
23403;DHT22;11874;48.228;11.684;2024-01-30T08:59:25;4.20;99.90
23403;DHT22;11874;48.228;11.684;2024-01-30T09:01:53;4.20;99.90
23403;DHT22;11874;48.228;11.684;2024-01-30T09:04:38;4.20;99.90
23403;DHT22;11874;48.228;11.684;2024-01-30T09:07:08;4.30;99.90
23403;DHT22;11874;48.228;11.684;2024-01-30T09:09:39;4.30;99.90
23403;DHT22;11874;48.228;11.684;2024-01-30T09:12:12;4.30;99.90
23403;DHT22;11874;48.228;11.684;2024-01-30T09:14:44;4.40;99.90
23403;DHT22;11874;48.228;11.684;2024-01-30T09:17:14;4.40;99.90
23403;DHT22;11874;48.228;11.684;2024-01-30T09:19:42;4.50;99.90
23403;DHT22;11874;48.228;11.684;2024-01-30T09:22:10;4.50;99.90
23403;DHT22;11874;48.228;11.684;2024-01-30T09:24:40;4.50;99.90
23403;DHT22;11874;48.228;11.684;2024-01-30T09:27:10;4.60;99.90
23403;DHT22;11874;48.228;11.684;2024-01-30T09:29:39;5.50;99.90
23403;DHT22;11874;48.228;11.684;2024-01-30T09:32:09;4.60;99.90
23403;DHT22;11874;48.228;11.684;2024-01-30T09:34:37;4.70;99.90
23403;DHT22;11874;48.228;11.684;2024-01-30T09:37:08;4.70;99.90
23403;DHT22;11874;48.228;11.684;2024-01-30T09:39:36;4.70;99.90
23403;DHT22;11874;48.228;11.684;2024-01-30T09:42:20;4.70;99.90
23403;DHT22;11874;48.228;11.684;2024-01-30T09:44:50;4.70;99.90
23403;DHT22;11874;48.228;11.684;2024-01-30T09:47:19;4.70;99.90
23403;DHT22;11874;48.228;11.684;2024-01-30T09:49:47;4.70;99.90
23403;DHT22;11874;48.228;11.684;2024-01-30T09:52:16;4.80;99.90
23403;DHT22;11874;48.228;11.684;2024-01-30T09:54:46;4.80;99.90
23403;DHT22;11874;48.228;11.684;2024-01-30T09:57:17;4.80;99.90
23403;DHT22;11874;48.228;11.684;2024-01-30T09:59:47;4.80;99.90
23403;DHT22;11874;48.228;11.684;2024-01-30T10:02:19;4.80;99.90
23403;DHT22;11874;48.228;11.684;2024-01-30T10:04:48;4.90;99.90
23403;DHT22;11874;48.228;11.684;2024-01-30T10:07:16;4.90;99.90
23403;DHT22;11874;48.228;11.684;2024-01-30T10:09:46;4.90;99.90
23403;DHT22;11874;48.228;11.684;2024-01-30T10:12:17;4.90;99.90
23403;DHT22;11874;48.228;11.684;2024-01-30T10:14:46;5.00;99.90
23403;DHT22;11874;48.228;11.684;2024-01-30T10:17:15;5.00;99.90
23403;DHT22;11874;48.228;11.684;2024-01-30T10:19:58;5.00;99.90
23403;DHT22;11874;48.228;11.684;2024-01-30T10:22:27;5.00;99.90
23403;DHT22;11874;48.228;11.684;2024-01-30T10:24:55;5.10;99.90
23403;DHT22;11874;48.228;11.684;2024-01-30T10:27:28;5.10;99.90
23403;DHT22;11874;48.228;11.684;2024-01-30T10:29:58;5.10;99.90
23403;DHT22;11874;48.228;11.684;2024-01-30T10:32:27;5.10;99.90
23403;DHT22;11874;48.228;11.684;2024-01-30T10:34:56;5.20;99.90
23403;DHT22;11874;48.228;11.684;2024-01-30T10:37:25;5.20;99.90
23403;DHT22;11874;48.228;11.684;2024-01-30T10:39:54;5.30;99.90
23403;DHT22;11874;48.228;11.684;2024-01-30T10:42:26;5.30;99.90
23403;DHT22;11874;48.228;11.684;2024-01-30T10:45:02;5.30;99.90
23403;DHT22;11874;48.228;11.684;2024-01-30T10:47:34;5.40;99.90
23403;DHT22;11874;48.228;11.684;2024-01-30T10:50:04;5.40;99.90
23403;DHT22;11874;48.228;11.684;2024-01-30T10:52:35;5.50;99.90
23403;DHT22;11874;48.228;11.684;2024-01-30T10:55:04;5.50;99.90
23403;DHT22;11874;48.228;11.684;2024-01-30T10:57:35;5.50;99.90
23403;DHT22;11874;48.228;11.684;2024-01-30T11:00:09;5.60;99.90
23403;DHT22;11874;48.228;11.684;2024-01-30T11:02:41;5.60;99.90
23403;DHT22;11874;48.228;11.684;2024-01-30T11:05:10;5.60;99.90
23403;DHT22;11874;48.228;11.684;2024-01-30T11:07:39;5.60;99.90
23403;DHT22;11874;48.228;11.684;2024-01-30T11:10:08;5.70;99.90
23403;DHT22;11874;48.228;11.684;2024-01-30T11:12:41;5.70;99.90
23403;DHT22;11874;48.228;11.684;2024-01-30T11:15:13;5.80;99.90
23403;DHT22;11874;48.228;11.684;2024-01-30T11:17:42;5.80;99.90
23403;DHT22;11874;48.228;11.684;2024-01-30T11:20:15;5.90;99.90
23403;DHT22;11874;48.228;11.684;2024-01-30T11:22:49;5.90;99.90
23403;DHT22;11874;48.228;11.684;2024-01-30T11:25:22;5.90;99.90
23403;DHT22;11874;48.228;11.684;2024-01-30T11:27:53;6.00;99.90
23403;DHT22;11874;48.228;11.684;2024-01-30T11:30:23;6.00;99.90
23403;DHT22;11874;48.228;11.684;2024-01-30T11:32:59;6.00;99.90
23403;DHT22;11874;48.228;11.684;2024-01-30T11:35:30;6.10;99.90
23403;DHT22;11874;48.228;11.684;2024-01-30T11:38:00;6.20;99.90
23403;DHT22;11874;48.228;11.684;2024-01-30T11:40:29;6.20;99.90
23403;DHT22;11874;48.228;11.684;2024-01-30T11:43:00;6.30;99.90
23403;DHT22;11874;48.228;11.684;2024-01-30T11:45:30;6.30;99.90
23403;DHT22;11874;48.228;11.684;2024-01-30T11:47:59;6.40;99.90
23403;DHT22;11874;48.228;11.684;2024-01-30T11:50:32;6.40;99.90
23403;DHT22;11874;48.228;11.684;2024-01-30T11:53:01;6.50;99.90
23403;DHT22;11874;48.228;11.684;2024-01-30T11:55:30;6.60;99.90
23403;DHT22;11874;48.228;11.684;2024-01-30T11:58:03;6.60;99.90
23403;DHT22;11874;48.228;11.684;2024-01-30T12:00:32;6.70;99.90
23403;DHT22;11874;48.228;11.684;2024-01-30T12:03:03;6.70;99.90
23403;DHT22;11874;48.228;11.684;2024-01-30T12:05:33;6.80;99.90
23403;DHT22;11874;48.228;11.684;2024-01-30T12:08:01;6.80;99.90
23403;DHT22;11874;48.228;11.684;2024-01-30T12:10:30;6.90;99.90
23403;DHT22;11874;48.228;11.684;2024-01-30T12:12:58;7.00;99.90
23403;DHT22;11874;48.228;11.684;2024-01-30T12:15:28;7.00;99.90
23403;DHT22;11874;48.228;11.684;2024-01-30T12:18:04;7.10;99.90
23403;DHT22;11874;48.228;11.684;2024-01-30T12:20:34;7.20;99.90
23403;DHT22;11874;48.228;11.684;2024-01-30T12:23:02;7.30;99.90
23403;DHT22;11874;48.228;11.684;2024-01-30T12:25:31;7.30;99.90
23403;DHT22;11874;48.228;11.684;2024-01-30T12:27:59;7.40;99.90
23403;DHT22;11874;48.228;11.684;2024-01-30T12:30:29;7.50;99.90
23403;DHT22;11874;48.228;11.684;2024-01-30T12:32:57;7.50;99.90
23403;DHT22;11874;48.228;11.684;2024-01-30T12:35:25;7.60;99.90
23403;DHT22;11874;48.228;11.684;2024-01-30T12:37:58;7.70;99.90
23403;DHT22;11874;48.228;11.684;2024-01-30T12:40:26;7.80;99.90
23403;DHT22;11874;48.228;11.684;2024-01-30T12:42:56;8.00;99.90
23403;DHT22;11874;48.228;11.684;2024-01-30T12:45:25;8.10;99.90
23403;DHT22;11874;48.228;11.684;2024-01-30T12:47:55;8.30;99.90
23403;DHT22;11874;48.228;11.684;2024-01-30T12:50:23;8.50;99.90
23403;DHT22;11874;48.228;11.684;2024-01-30T12:52:51;8.60;99.90
23403;DHT22;11874;48.228;11.684;2024-01-30T12:55:19;8.70;99.90
23403;DHT22;11874;48.228;11.684;2024-01-30T12:57:48;8.70;99.90
23403;DHT22;11874;48.228;11.684;2024-01-30T13:00:16;8.70;99.90
23403;DHT22;11874;48.228;11.684;2024-01-30T13:02:51;8.80;99.90
23403;DHT22;11874;48.228;11.684;2024-01-30T13:05:20;8.90;99.90
23403;DHT22;11874;48.228;11.684;2024-01-30T13:07:48;9.10;99.90
23403;DHT22;11874;48.228;11.684;2024-01-30T13:10:17;9.30;99.90
23403;DHT22;11874;48.228;11.684;2024-01-30T13:12:44;9.60;99.90
23403;DHT22;11874;48.228;11.684;2024-01-30T13:15:12;9.90;99.90
23403;DHT22;11874;48.228;11.684;2024-01-30T13:17:40;10.10;99.90
23403;DHT22;11874;48.228;11.684;2024-01-30T13:20:10;10.40;99.90
23403;DHT22;11874;48.228;11.684;2024-01-30T13:22:40;10.70;99.90
23403;DHT22;11874;48.228;11.684;2024-01-30T13:25:08;10.90;99.90
23403;DHT22;11874;48.228;11.684;2024-01-30T13:27:36;11.30;99.90
23403;DHT22;11874;48.228;11.684;2024-01-30T13:30:07;11.70;99.90
23403;DHT22;11874;48.228;11.684;2024-01-30T13:32:38;11.80;99.90
23403;DHT22;11874;48.228;11.684;2024-01-30T13:35:07;11.90;99.90
23403;DHT22;11874;48.228;11.684;2024-01-30T13:37:36;12.10;99.90
23403;DHT22;11874;48.228;11.684;2024-01-30T13:40:09;12.20;99.90
23403;DHT22;11874;48.228;11.684;2024-01-30T13:42:40;12.30;99.90
23403;DHT22;11874;48.228;11.684;2024-01-30T13:45:08;12.40;99.90
23403;DHT22;11874;48.228;11.684;2024-01-30T13:47:38;12.60;99.90
23403;DHT22;11874;48.228;11.684;2024-01-30T13:50:06;12.70;99.90
23403;DHT22;11874;48.228;11.684;2024-01-30T13:52:35;12.70;99.90
23403;DHT22;11874;48.228;11.684;2024-01-30T13:55:12;12.80;99.90
23403;DHT22;11874;48.228;11.684;2024-01-30T13:57:41;12.90;99.90
23403;DHT22;11874;48.228;11.684;2024-01-30T14:00:10;12.90;99.90
23403;DHT22;11874;48.228;11.684;2024-01-30T14:02:38;12.90;99.90
23403;DHT22;11874;48.228;11.684;2024-01-30T14:05:07;12.90;99.90
23403;DHT22;11874;48.228;11.684;2024-01-30T14:07:37;12.80;99.90
23403;DHT22;11874;48.228;11.684;2024-01-30T14:10:07;12.80;99.90
23403;DHT22;11874;48.228;11.684;2024-01-30T14:12:42;12.70;99.90
23403;DHT22;11874;48.228;11.684;2024-01-30T14:15:11;12.50;99.90
23403;DHT22;11874;48.228;11.684;2024-01-30T14:17:53;12.40;99.90
23403;DHT22;11874;48.228;11.684;2024-01-30T14:20:22;12.20;99.90
23403;DHT22;11874;48.228;11.684;2024-01-30T14:22:50;12.00;99.90
23403;DHT22;11874;48.228;11.684;2024-01-30T14:25:18;11.80;99.90
23403;DHT22;11874;48.228;11.684;2024-01-30T14:27:48;11.70;99.90
23403;DHT22;11874;48.228;11.684;2024-01-30T14:30:17;11.50;99.90
23403;DHT22;11874;48.228;11.684;2024-01-30T14:32:45;11.40;99.90
23403;DHT22;11874;48.228;11.684;2024-01-30T14:35:14;11.30;99.90
23403;DHT22;11874;48.228;11.684;2024-01-30T14:37:42;11.00;99.90
23403;DHT22;11874;48.228;11.684;2024-01-30T14:40:10;10.90;99.90
23403;DHT22;11874;48.228;11.684;2024-01-30T14:42:38;10.80;99.90
23403;DHT22;11874;48.228;11.684;2024-01-30T14:45:08;10.70;99.90
23403;DHT22;11874;48.228;11.684;2024-01-30T14:47:36;10.60;99.90
23403;DHT22;11874;48.228;11.684;2024-01-30T14:50:05;10.70;99.90
23403;DHT22;11874;48.228;11.684;2024-01-30T14:52:35;10.40;99.90
23403;DHT22;11874;48.228;11.684;2024-01-30T14:55:14;10.30;99.90
23403;DHT22;11874;48.228;11.684;2024-01-30T14:57:43;10.30;99.90
23403;DHT22;11874;48.228;11.684;2024-01-30T15:00:14;10.20;99.90
23403;DHT22;11874;48.228;11.684;2024-01-30T15:02:43;10.20;99.90
23403;DHT22;11874;48.228;11.684;2024-01-30T15:05:14;10.10;99.90
23403;DHT22;11874;48.228;11.684;2024-01-30T15:07:43;10.10;99.90
23403;DHT22;11874;48.228;11.684;2024-01-30T15:10:11;10.00;99.90
23403;DHT22;11874;48.228;11.684;2024-01-30T15:12:40;10.00;99.90
23403;DHT22;11874;48.228;11.684;2024-01-30T15:15:09;10.00;99.90
23403;DHT22;11874;48.228;11.684;2024-01-30T15:17:39;10.00;99.90
23403;DHT22;11874;48.228;11.684;2024-01-30T15:20:08;10.00;99.90
23403;DHT22;11874;48.228;11.684;2024-01-30T15:22:36;9.90;99.90
23403;DHT22;11874;48.228;11.684;2024-01-30T15:25:05;10.40;99.90
23403;DHT22;11874;48.228;11.684;2024-01-30T15:27:33;9.80;99.90
23403;DHT22;11874;48.228;11.684;2024-01-30T15:30:01;9.70;99.90
23403;DHT22;11874;48.228;11.684;2024-01-30T15:32:30;9.70;99.90
23403;DHT22;11874;48.228;11.684;2024-01-30T15:35:00;9.60;99.90
23403;DHT22;11874;48.228;11.684;2024-01-30T15:37:31;9.60;99.90
23403;DHT22;11874;48.228;11.684;2024-01-30T15:40:00;9.50;99.90
23403;DHT22;11874;48.228;11.684;2024-01-30T15:42:29;9.50;99.90
23403;DHT22;11874;48.228;11.684;2024-01-30T15:44:57;9.40;99.90